createdAt,value
2023-04-18T00:00:26.038Z,1022.8
2023-04-18T00:01:59.000Z,1022.8
2023-04-18T00:03:15.435Z,1022.9
2023-04-18T00:04:31.633Z,1022.8
2023-04-18T00:05:29.827Z,1022.9
2023-04-18T00:07:04.026Z,1022.8
2023-04-18T00:08:02.213Z,1022.8
2023-04-18T00:09:35.000Z,1022.8
2023-04-18T00:10:51.000Z,1022.7
2023-04-18T00:12:07.816Z,1022.9
2023-04-18T00:13:49.000Z,1022.8
2023-04-18T00:14:39.227Z,1022.8
2023-04-18T00:15:54.438Z,1022.8
2023-04-18T00:17:10.000Z,1022.8
2023-04-18T00:18:26.823Z,1022.8
2023-04-18T00:19:43.029Z,1022.8
2023-04-18T00:20:41.213Z,1022.8
2023-04-18T00:22:41.000Z,1022.8
2023-04-18T00:23:31.000Z,1022.8
2023-04-18T00:24:47.791Z,1022.9
2023-04-18T00:25:45.985Z,1022.8
2023-04-18T00:27:20.000Z,1022.8
2023-04-18T00:28:36.371Z,1022.8
2023-04-18T00:29:52.572Z,1022.8
2023-04-18T00:31:08.763Z,1022.7
2023-04-18T00:32:23.000Z,1022.8
2023-04-18T00:33:40.000Z,1022.8
2023-04-18T00:34:38.352Z,1022.8
2023-04-18T00:36:12.000Z,1022.7
2023-04-18T00:37:28.748Z,1022.8
2023-04-18T00:38:26.931Z,1022.8
2023-04-18T00:40:01.124Z,1022.8
2023-04-18T00:40:59.317Z,1022.7
2023-04-18T00:42:32.547Z,1022.8
2023-04-18T00:43:48.728Z,1022.8
2023-04-18T00:45:04.000Z,1022.8
2023-04-18T00:46:21.111Z,1022.8
2023-04-18T00:47:36.000Z,1022.8
2023-04-18T00:48:52.000Z,1022.9
2023-04-18T00:50:08.000Z,1022.8
2023-04-18T00:51:06.913Z,1022.8
2023-04-18T00:53:06.000Z,1022.9
2023-04-18T00:53:38.315Z,1022.9
2023-04-18T00:55:12.000Z,1022.8
2023-04-18T00:56:10.702Z,1023
2023-04-18T00:57:44.896Z,1022.9
2023-04-18T00:59:01.088Z,1022.8
2023-04-18T01:00:17.281Z,1022.9
2023-04-18T01:01:33.000Z,1023
2023-04-18T01:02:49.667Z,1023
2023-04-18T01:04:05.000Z,1022.9
2023-04-18T01:05:22.061Z,1023
2023-04-18T01:06:20.247Z,1022.8
2023-04-18T01:07:54.000Z,1022.9
2023-04-18T01:08:52.633Z,1022.9
2023-04-18T01:10:26.000Z,1022.9
2023-04-18T01:11:43.015Z,1022.9
2023-04-18T01:12:41.211Z,1022.9
2023-04-18T01:14:15.404Z,1022.9
2023-04-18T01:15:31.597Z,1022.9
2023-04-18T01:16:47.788Z,1022.9
2023-04-18T01:18:03.984Z,1022.8
2023-04-18T01:19:02.177Z,1022.9
2023-04-18T01:20:35.000Z,1022.9
2023-04-18T01:21:33.589Z,1022.9
2023-04-18T01:23:07.778Z,1022.9
2023-04-18T01:24:23.000Z,1022.9
2023-04-18T01:25:40.168Z,1022.9
2023-04-18T01:26:56.000Z,1022.8
2023-04-18T01:28:12.000Z,1022.8
2023-04-18T01:29:54.000Z,1022.8
2023-04-18T01:30:26.939Z,1022.8
2023-04-18T01:32:01.135Z,1022.9
2023-04-18T01:33:17.000Z,1022.9
2023-04-18T01:34:33.000Z,1022.8
2023-04-18T01:35:49.832Z,1022.9
2023-04-18T01:37:06.000Z,1022.8
2023-04-18T01:38:22.219Z,1022.9
2023-04-18T01:39:38.000Z,1022.9
2023-04-18T01:40:54.000Z,1022.8
2023-04-18T01:42:10.000Z,1022.8
2023-04-18T01:43:08.991Z,1022.8
2023-04-18T01:44:25.184Z,1022.9
2023-04-18T01:45:59.379Z,1022.8
2023-04-18T01:47:15.570Z,1022.8
2023-04-18T01:48:30.790Z,1022.8
2023-04-18T01:49:28.983Z,1022.8
2023-04-18T01:51:03.181Z,1022.8
2023-04-18T01:52:18.395Z,1022.9
2023-04-18T01:54:00.000Z,1022.8
2023-04-18T01:54:32.781Z,1022.8
2023-04-18T01:56:06.000Z,1022.8
2023-04-18T01:57:22.192Z,1022.8
2023-04-18T01:58:38.509Z,1022.8
2023-04-18T01:59:36.701Z,1022.8
2023-04-18T02:01:10.000Z,1022.8
2023-04-18T02:02:09.087Z,1022.8
2023-04-18T02:03:43.000Z,1022.8
2023-04-18T02:04:59.474Z,1022.8
2023-04-18T02:06:15.668Z,1022.8
2023-04-18T02:07:58.000Z,1022.8
2023-04-18T02:08:48.059Z,1022.7
2023-04-18T02:09:46.246Z,1022.7
2023-04-18T02:11:20.000Z,1022.7
2023-04-18T02:12:18.632Z,1022.7
2023-04-18T02:13:52.834Z,1022.7
2023-04-18T02:14:51.019Z,1022.7
2023-04-18T02:16:25.216Z,1022.7
2023-04-18T02:17:40.000Z,1022.7
2023-04-18T02:18:56.000Z,1022.7
2023-04-18T02:19:54.808Z,1022.7
2023-04-18T02:21:29.000Z,1022.7
2023-04-18T02:22:27.194Z,1022.7
2023-04-18T02:24:01.528Z,1022.7
2023-04-18T02:25:17.717Z,1022.7
2023-04-18T02:26:32.000Z,1022.7
2023-04-18T02:27:31.134Z,1022.7
2023-04-18T02:28:46.354Z,1022.7
2023-04-18T02:30:20.548Z,1022.7
2023-04-18T02:31:36.000Z,1022.6
2023-04-18T02:32:34.934Z,1022.7
2023-04-18T02:34:09.000Z,1022.7
2023-04-18T02:35:25.329Z,1022.7
2023-04-18T02:36:40.543Z,1022.6
2023-04-18T02:37:56.725Z,1022.7
2023-04-18T02:39:12.917Z,1022.7
2023-04-18T02:40:11.108Z,1022.7
2023-04-18T02:41:45.301Z,1022.8
2023-04-18T02:43:01.000Z,1022.7
2023-04-18T02:44:17.687Z,1022.7
2023-04-18T02:45:15.880Z,1022.7
2023-04-18T02:46:32.073Z,1022.8
2023-04-18T02:48:06.000Z,1022.8
2023-04-18T02:49:22.000Z,1022.7
2023-04-18T02:50:38.000Z,1022.7
2023-04-18T02:51:36.846Z,1022.8
2023-04-18T02:52:53.039Z,1022.7
2023-04-18T02:54:27.238Z,1022.7
2023-04-18T02:55:43.425Z,1022.7
2023-04-18T02:56:59.628Z,1022.8
2023-04-18T02:57:57.811Z,1022.8
2023-04-18T02:59:31.000Z,1022.7
2023-04-18T03:00:47.222Z,1022.8
2023-04-18T03:02:02.000Z,1022.9
2023-04-18T03:03:18.000Z,1022.8
2023-04-18T03:04:34.000Z,1022.8
2023-04-18T03:05:51.000Z,1022.9
2023-04-18T03:07:33.000Z,1022.8
2023-04-18T03:08:23.000Z,1022.9
2023-04-18T03:09:21.593Z,1022.9
2023-04-18T03:10:37.786Z,1022.9
2023-04-18T03:12:11.000Z,1022.8
2023-04-18T03:13:10.172Z,1022.9
2023-04-18T03:14:44.364Z,1023
2023-04-18T03:16:00.000Z,1023
2023-04-18T03:17:16.757Z,1022.9
2023-04-18T03:18:13.960Z,1023
2023-04-18T03:19:48.000Z,1022.9
2023-04-18T03:21:04.000Z,1023
2023-04-18T03:22:20.542Z,1022.9
2023-04-18T03:23:18.733Z,1022.9
2023-04-18T03:24:52.000Z,1023
2023-04-18T03:25:51.120Z,1022.9
2023-04-18T03:27:25.000Z,1023
2023-04-18T03:28:23.506Z,1023
2023-04-18T03:29:38.725Z,1023
2023-04-18T03:31:12.935Z,1022.9
2023-04-18T03:32:28.142Z,1022.9
2023-04-18T03:33:44.000Z,1023
2023-04-18T03:35:00.535Z,1023
2023-04-18T03:35:58.718Z,1022.9
2023-04-18T03:37:31.000Z,1022.9
2023-04-18T03:38:48.000Z,1023
2023-04-18T03:40:04.312Z,1022.9
2023-04-18T03:41:20.505Z,1022.9
2023-04-18T03:42:36.827Z,1023
2023-04-18T03:43:53.019Z,1023
2023-04-18T03:45:09.000Z,1022.9
2023-04-18T03:46:25.000Z,1023
2023-04-18T03:47:41.000Z,1023
2023-04-18T03:48:39.792Z,1023
2023-04-18T03:50:13.000Z,1023.1
2023-04-18T03:51:12.179Z,1023
2023-04-18T03:52:46.377Z,1023
2023-04-18T03:54:02.567Z,1022.9
2023-04-18T03:55:18.758Z,1023
2023-04-18T03:56:16.951Z,1023
2023-04-18T03:57:51.144Z,1023.1
2023-04-18T03:59:07.337Z,1023
2023-04-18T04:00:23.532Z,1023.1
2023-04-18T04:01:20.750Z,1023.1
2023-04-18T04:02:54.000Z,1023
2023-04-18T04:03:53.136Z,1023.1
2023-04-18T04:05:26.000Z,1023
2023-04-18T04:06:42.559Z,1023
2023-04-18T04:07:58.000Z,1023
2023-04-18T04:08:56.935Z,1023.1
2023-04-18T04:10:57.000Z,1023
2023-04-18T04:11:47.000Z,1023
2023-04-18T04:13:03.000Z,1023.1
2023-04-18T04:14:01.708Z,1023.1
2023-04-18T04:15:17.901Z,1023.2
2023-04-18T04:16:51.110Z,1023.1
2023-04-18T04:18:07.000Z,1023.2
2023-04-18T04:19:23.497Z,1023.1
2023-04-18T04:20:39.000Z,1023.2
2023-04-18T04:21:55.890Z,1023.2
2023-04-18T04:22:54.075Z,1023.2
2023-04-18T04:24:28.000Z,1023.2
2023-04-18T04:25:26.461Z,1023.2
2023-04-18T04:26:42.654Z,1023.2
2023-04-18T04:28:16.000Z,1023.3
2023-04-18T04:29:33.057Z,1023.3
2023-04-18T04:30:31.232Z,1023.2
2023-04-18T04:32:04.459Z,1023.2
2023-04-18T04:33:19.663Z,1023.2
2023-04-18T04:34:35.853Z,1023.3
2023-04-18T04:35:52.000Z,1023.2
2023-04-18T04:37:08.239Z,1023.3
2023-04-18T04:38:24.445Z,1023.3
2023-04-18T04:39:22.625Z,1023.2
2023-04-18T04:40:56.820Z,1023.3
2023-04-18T04:42:13.026Z,1023.2
2023-04-18T04:43:29.216Z,1023.2
2023-04-18T04:44:45.402Z,1023.2
2023-04-18T04:45:43.590Z,1023.2
2023-04-18T04:46:59.783Z,1023.2
2023-04-18T04:48:15.976Z,1023.2
2023-04-18T04:49:50.000Z,1023.3
2023-04-18T04:51:06.000Z,1023.2
2023-04-18T04:52:04.555Z,1023.3
2023-04-18T04:53:19.764Z,1023.2
2023-04-18T04:54:35.957Z,1023.3
2023-04-18T04:56:10.149Z,1023.3
2023-04-18T04:57:26.345Z,1023.3
2023-04-18T04:58:41.000Z,1023.3
2023-04-18T04:59:39.755Z,1023.3
2023-04-18T05:01:13.948Z,1023.3
2023-04-18T05:02:30.000Z,1023.3
2023-04-18T05:03:46.348Z,1023.3
2023-04-18T05:04:44.527Z,1023.4
2023-04-18T05:06:17.000Z,1023.4
2023-04-18T05:07:33.940Z,1023.4
2023-04-18T05:08:50.123Z,1023.4
2023-04-18T05:10:06.000Z,1023.4
2023-04-18T05:11:22.514Z,1023.4
2023-04-18T05:12:20.702Z,1023.4
2023-04-18T05:13:54.000Z,1023.5
2023-04-18T05:15:11.000Z,1023.4
2023-04-18T05:16:27.281Z,1023.4
2023-04-18T05:17:43.480Z,1023.4
2023-04-18T05:18:59.000Z,1023.3
2023-04-18T05:19:57.860Z,1023.4
2023-04-18T05:21:32.000Z,1023.4
2023-04-18T05:22:48.249Z,1023.4
2023-04-18T05:24:04.562Z,1023.4
2023-04-18T05:25:02.753Z,1023.4
2023-04-18T05:26:36.000Z,1023.4
2023-04-18T05:27:53.139Z,1023.4
2023-04-18T05:29:09.000Z,1023.4
2023-04-18T05:30:07.525Z,1023.4
2023-04-18T05:31:40.000Z,1023.4
2023-04-18T05:32:56.948Z,1023.3
2023-04-18T05:34:12.158Z,1023.4
2023-04-18T05:35:10.341Z,1023.4
2023-04-18T05:36:44.000Z,1023.4
2023-04-18T05:37:42.727Z,1023.5
2023-04-18T05:39:16.920Z,1023.4
2023-04-18T05:40:33.113Z,1023.5
2023-04-18T05:41:49.324Z,1023.4
2023-04-18T05:43:05.500Z,1023.4
2023-04-18T05:44:21.000Z,1023.4
2023-04-18T05:45:19.884Z,1023.4
2023-04-18T05:46:54.078Z,1023.4
2023-04-18T05:48:10.282Z,1023.4
2023-04-18T05:49:26.469Z,1023.5
2023-04-18T05:50:41.684Z,1023.5
2023-04-18T05:51:57.874Z,1023.4
2023-04-18T05:53:14.000Z,1023.4
2023-04-18T05:54:30.252Z,1023.4
2023-04-18T05:55:46.462Z,1023.5
2023-04-18T05:57:02.649Z,1023.4
2023-04-18T05:58:00.832Z,1023.5
2023-04-18T05:59:35.000Z,1023.4
2023-04-18T06:00:51.233Z,1023.4
2023-04-18T06:02:07.411Z,1023.4
2023-04-18T06:03:23.605Z,1023.4
2023-04-18T06:04:39.000Z,1023.4
2023-04-18T06:05:55.000Z,1023.4
2023-04-18T06:07:12.000Z,1023.4
2023-04-18T06:08:28.383Z,1023.5
2023-04-18T06:09:43.000Z,1023.4
2023-04-18T06:10:59.780Z,1023.5
2023-04-18T06:11:57.973Z,1023.5
2023-04-18T06:13:32.176Z,1023.5
2023-04-18T06:14:48.000Z,1023.6
2023-04-18T06:16:04.556Z,1023.6
2023-04-18T06:17:20.759Z,1023.5
2023-04-18T06:18:36.000Z,1023.5
2023-04-18T06:19:53.133Z,1023.5
2023-04-18T06:21:09.324Z,1023.6
2023-04-18T06:22:25.000Z,1023.6
2023-04-18T06:23:23.711Z,1023.5
2023-04-18T06:24:57.903Z,1023.6
2023-04-18T06:26:13.113Z,1023.6
2023-04-18T06:27:29.321Z,1023.7
2023-04-18T06:28:45.506Z,1023.5
2023-04-18T06:30:01.000Z,1023.5
2023-04-18T06:31:17.887Z,1023.5
2023-04-18T06:32:34.084Z,1023.6
2023-04-18T06:33:50.287Z,1023.5
2023-04-18T06:35:06.475Z,1023.5
2023-04-18T06:36:04.660Z,1023.7
2023-04-18T06:37:38.000Z,1023.6
2023-04-18T06:38:55.054Z,1023.6
2023-04-18T06:40:11.000Z,1023.7
2023-04-18T06:41:27.450Z,1023.7
2023-04-18T06:42:42.000Z,1023.5
2023-04-18T06:43:58.000Z,1023.5
2023-04-18T06:45:15.000Z,1023.6
2023-04-18T06:46:13.223Z,1023.6
2023-04-18T06:47:47.000Z,1023.6
2023-04-18T06:48:45.609Z,1023.5
2023-04-18T06:50:19.000Z,1023.7
2023-04-18T06:51:35.000Z,1023.6
2023-04-18T06:52:52.000Z,1023.7
2023-04-18T06:54:08.384Z,1023.7
2023-04-18T06:55:24.587Z,1023.7
2023-04-18T06:56:40.000Z,1023.8
2023-04-18T06:57:56.000Z,1023.6
2023-04-18T06:58:55.154Z,1023.7
2023-04-18T07:00:28.368Z,1023.8
2023-04-18T07:01:44.563Z,1023.8
2023-04-18T07:03:00.000Z,1023.8
2023-04-18T07:04:16.000Z,1023.8
2023-04-18T07:05:33.000Z,1023.7
2023-04-18T07:06:31.330Z,1023.8
2023-04-18T07:08:05.523Z,1023.8
2023-04-18T07:09:21.000Z,1023.8
2023-04-18T07:10:19.910Z,1023.8
2023-04-18T07:11:36.103Z,1023.8
2023-04-18T07:13:10.297Z,1023.8
2023-04-18T07:14:08.491Z,1023.7
2023-04-18T07:15:42.000Z,1023.7
2023-04-18T07:16:58.883Z,1023.7
2023-04-18T07:18:14.097Z,1023.8
2023-04-18T07:19:12.279Z,1023.8
2023-04-18T07:20:28.472Z,1023.8
2023-04-18T07:22:02.000Z,1023.7
2023-04-18T07:23:18.000Z,1023.7
2023-04-18T07:24:17.052Z,1023.8
2023-04-18T07:25:51.245Z,1023.7
2023-04-18T07:27:07.439Z,1023.7
2023-04-18T07:28:23.000Z,1023.6
2023-04-18T07:29:21.825Z,1023.7
2023-04-18T07:30:56.000Z,1023.8
2023-04-18T07:31:54.212Z,1023.7
2023-04-18T07:33:28.413Z,1023.7
2023-04-18T07:34:43.000Z,1023.6
2023-04-18T07:35:59.000Z,1023.7
2023-04-18T07:36:58.002Z,1023.7
2023-04-18T07:38:32.196Z,1023.7
2023-04-18T07:39:48.400Z,1023.7
2023-04-18T07:41:04.582Z,1023.7
2023-04-18T07:42:20.782Z,1023.7
2023-04-18T07:43:36.000Z,1023.7
2023-04-18T07:44:53.000Z,1023.8
2023-04-18T07:46:09.357Z,1023.7
2023-04-18T07:47:25.550Z,1023.7
2023-04-18T07:48:41.750Z,1023.8
2023-04-18T07:49:39.937Z,1023.7
2023-04-18T07:51:14.134Z,1023.8
2023-04-18T07:52:12.323Z,1023.8
2023-04-18T07:53:45.000Z,1023.7
2023-04-18T07:54:43.726Z,1023.8
2023-04-18T07:56:17.932Z,1023.8
2023-04-18T07:57:15.134Z,1023.8
2023-04-18T07:58:49.000Z,1023.8
2023-04-18T08:00:05.521Z,1023.7
2023-04-18T08:01:21.715Z,1023.7
2023-04-18T08:02:37.918Z,1023.8
2023-04-18T08:03:54.000Z,1023.8
2023-04-18T08:05:10.312Z,1023.8
2023-04-18T08:06:26.000Z,1023.8
2023-04-18T08:07:24.681Z,1023.8
2023-04-18T08:08:58.000Z,1023.8
2023-04-18T08:09:57.068Z,1023.8
2023-04-18T08:11:31.276Z,1023.9
2023-04-18T08:12:47.454Z,1023.8
2023-04-18T08:14:03.000Z,1023.9
2023-04-18T08:15:19.000Z,1023.9
2023-04-18T08:16:36.000Z,1023.7
2023-04-18T08:17:34.225Z,1023.8
2023-04-18T08:19:08.435Z,1023.8
2023-04-18T08:20:24.000Z,1023.8
2023-04-18T08:21:39.824Z,1023.8
2023-04-18T08:22:38.014Z,1023.8
2023-04-18T08:24:12.000Z,1023.8
2023-04-18T08:25:28.000Z,1023.9
2023-04-18T08:26:44.594Z,1023.8
2023-04-18T08:27:42.786Z,1023.7
2023-04-18T08:29:16.988Z,1023.7
2023-04-18T08:30:33.000Z,1023.8
2023-04-18T08:31:49.365Z,1023.9
2023-04-18T08:33:31.000Z,1023.8
2023-04-18T08:34:21.000Z,1023.8
2023-04-18T08:35:19.944Z,1023.8
2023-04-18T08:36:54.000Z,1023.8
2023-04-18T08:38:10.330Z,1023.8
2023-04-18T08:39:26.000Z,1023.8
2023-04-18T08:40:24.716Z,1023.8
2023-04-18T08:41:58.000Z,1023.8
2023-04-18T08:42:57.101Z,1023.9
2023-04-18T08:44:31.000Z,1023.8
2023-04-18T08:45:47.610Z,1023.8
2023-04-18T08:47:03.000Z,1023.9
2023-04-18T08:48:46.000Z,1023.9
2023-04-18T08:49:36.187Z,1023.8
2023-04-18T08:50:52.000Z,1023.7
2023-04-18T08:52:08.000Z,1023.9
2023-04-18T08:53:24.000Z,1023.9
2023-04-18T08:54:40.000Z,1023.8
2023-04-18T08:55:39.153Z,1023.9
2023-04-18T08:57:13.358Z,1023.9
2023-04-18T08:58:29.552Z,1023.9
2023-04-18T08:59:45.736Z,1024
2023-04-18T09:01:00.000Z,1023.9
2023-04-18T09:02:17.000Z,1023.9
2023-04-18T09:03:33.327Z,1023.9
2023-04-18T09:04:49.000Z,1023.9
2023-04-18T09:05:47.713Z,1023.9
2023-04-18T09:07:03.906Z,1023.9
2023-04-18T09:08:20.099Z,1023.9
2023-04-18T09:09:54.291Z,1023.9
2023-04-18T09:11:10.488Z,1023.9
2023-04-18T09:12:26.693Z,1023.8
2023-04-18T09:13:42.000Z,1023.7
2023-04-18T09:14:59.070Z,1023.7
2023-04-18T09:16:15.256Z,1023.8
2023-04-18T09:17:31.000Z,1023.9
2023-04-18T09:18:47.000Z,1023.9
2023-04-18T09:20:03.848Z,1023.8
2023-04-18T09:21:20.000Z,1023.8
2023-04-18T09:22:36.000Z,1023.9
2023-04-18T09:23:34.413Z,1023.9
2023-04-18T09:25:08.728Z,1023.9
2023-04-18T09:26:06.921Z,1023.9
2023-04-18T09:27:41.114Z,1023.9
2023-04-18T09:28:57.000Z,1023.9
2023-04-18T09:30:13.506Z,1023.8
2023-04-18T09:31:29.704Z,1023.9
2023-04-18T09:32:45.000Z,1023.8
2023-04-18T09:33:44.082Z,1023.9
2023-04-18T09:35:18.287Z,1023.8
2023-04-18T09:36:34.476Z,1023.8
2023-04-18T09:37:50.000Z,1023.8
2023-04-18T09:38:48.860Z,1023.8
2023-04-18T09:40:23.000Z,1023.8
2023-04-18T09:41:39.000Z,1023.9
2023-04-18T09:42:55.455Z,1023.9
2023-04-18T09:43:52.654Z,1023.9
2023-04-18T09:45:26.000Z,1023.8
2023-04-18T09:46:25.044Z,1023.9
2023-04-18T09:47:59.000Z,1023.8
2023-04-18T09:48:57.433Z,1023.8
2023-04-18T09:50:31.000Z,1023.8
2023-04-18T09:51:29.823Z,1023.8
2023-04-18T09:53:04.025Z,1023.9
2023-04-18T09:54:20.000Z,1023.8
2023-04-18T09:55:36.000Z,1023.8
2023-04-18T09:56:34.603Z,1023.8
2023-04-18T09:58:08.802Z,1023.8
2023-04-18T09:59:06.993Z,1023.8
2023-04-18T10:00:41.000Z,1023.8
2023-04-18T10:01:39.383Z,1023.8
2023-04-18T10:03:12.594Z,1023.8
2023-04-18T10:04:10.788Z,1023.8
2023-04-18T10:05:44.996Z,1023.8
2023-04-18T10:07:01.000Z,1023.8
2023-04-18T10:08:17.374Z,1023.8
2023-04-18T10:09:33.578Z,1023.8
2023-04-18T10:10:49.768Z,1023.8
2023-04-18T10:12:05.961Z,1023.8
2023-04-18T10:13:22.000Z,1023.8
2023-04-18T10:14:38.000Z,1023.8
2023-04-18T10:15:54.550Z,1023.7
2023-04-18T10:16:52.738Z,1023.8
2023-04-18T10:18:26.000Z,1023.8
2023-04-18T10:19:43.000Z,1023.7
2023-04-18T10:21:25.000Z,1023.8
2023-04-18T10:21:57.519Z,1023.7
2023-04-18T10:23:31.720Z,1023.7
2023-04-18T10:24:28.925Z,1023.7
2023-04-18T10:26:03.000Z,1023.7
2023-04-18T10:27:19.325Z,1023.7
2023-04-18T10:28:35.515Z,1023.7
2023-04-18T10:29:51.706Z,1023.8
2023-04-18T10:30:49.902Z,1023.7
2023-04-18T10:32:24.097Z,1023.7
2023-04-18T10:33:40.000Z,1023.7
2023-04-18T10:34:56.000Z,1023.7
2023-04-18T10:36:12.702Z,1023.7
2023-04-18T10:37:28.884Z,1023.7
2023-04-18T10:38:45.000Z,1023.6
2023-04-18T10:40:01.272Z,1023.6
2023-04-18T10:41:17.586Z,1023.6
2023-04-18T10:42:33.789Z,1023.6
2023-04-18T10:43:49.997Z,1023.7
2023-04-18T10:45:06.000Z,1023.6
2023-04-18T10:46:04.366Z,1023.6
2023-04-18T10:47:20.561Z,1023.7
2023-04-18T10:48:54.757Z,1023.6
2023-04-18T10:49:52.952Z,1023.7
2023-04-18T10:51:27.000Z,1023.7
2023-04-18T10:52:25.342Z,1023.7
2023-04-18T10:53:59.000Z,1023.6
2023-04-18T10:55:15.736Z,1023.6
2023-04-18T10:56:31.934Z,1023.6
2023-04-18T10:57:47.000Z,1023.7
2023-04-18T10:59:03.356Z,1023.6
2023-04-18T11:00:01.530Z,1023.6
2023-04-18T11:01:35.746Z,1023.6
2023-04-18T11:02:33.921Z,1023.7
2023-04-18T11:04:08.000Z,1023.6
2023-04-18T11:05:24.000Z,1023.8
2023-04-18T11:06:22.508Z,1023.8
2023-04-18T11:07:56.000Z,1023.7
2023-04-18T11:09:12.908Z,1023.7
2023-04-18T11:10:29.000Z,1023.7
2023-04-18T11:11:45.000Z,1023.7
2023-04-18T11:12:43.484Z,1023.6
2023-04-18T11:14:17.697Z,1023.6
2023-04-18T11:15:15.875Z,1023.6
2023-04-18T11:16:32.071Z,1023.6
2023-04-18T11:17:48.266Z,1023.6
2023-04-18T11:19:21.000Z,1023.7
2023-04-18T11:20:19.671Z,1023.5
2023-04-18T11:21:53.875Z,1023.6
2023-04-18T11:23:10.062Z,1023.6
2023-04-18T11:24:26.258Z,1023.6
2023-04-18T11:25:42.456Z,1023.6
2023-04-18T11:26:58.000Z,1023.6
2023-04-18T11:27:56.844Z,1023.5
2023-04-18T11:29:31.045Z,1023.5
2023-04-18T11:30:47.000Z,1023.5
2023-04-18T11:32:03.000Z,1023.5
2023-04-18T11:33:19.000Z,1023.6
2023-04-18T11:34:35.000Z,1023.6
2023-04-18T11:35:52.000Z,1023.6
2023-04-18T11:37:08.000Z,1023.6
2023-04-18T11:38:06.406Z,1023.5
2023-04-18T11:39:39.000Z,1023.5
2023-04-18T11:40:55.000Z,1023.5
2023-04-18T11:42:12.000Z,1023.5
2023-04-18T11:43:28.000Z,1023.6
2023-04-18T11:44:26.399Z,1023.6
2023-04-18T11:46:00.000Z,1023.6
2023-04-18T11:47:16.790Z,1023.5
2023-04-18T11:48:32.000Z,1023.5
2023-04-18T11:49:49.181Z,1023.5
2023-04-18T11:51:05.000Z,1023.6
2023-04-18T11:52:03.571Z,1023.7
2023-04-18T11:53:37.773Z,1023.6
2023-04-18T11:54:53.967Z,1023.5
2023-04-18T11:55:51.173Z,1023.5
2023-04-18T11:57:25.000Z,1023.4
2023-04-18T11:58:23.564Z,1023.4
2023-04-18T11:59:57.766Z,1023.6
2023-04-18T12:01:13.000Z,1023.5
2023-04-18T12:02:56.000Z,1023.5
2023-04-18T12:03:46.000Z,1023.4
2023-04-18T12:05:02.000Z,1023.5
2023-04-18T12:06:00.736Z,1023.5
2023-04-18T12:07:16.932Z,1023.5
2023-04-18T12:08:33.127Z,1023.5
2023-04-18T12:10:07.339Z,1023.5
2023-04-18T12:11:05.518Z,1023.5
2023-04-18T12:12:38.000Z,1023.5
2023-04-18T12:13:54.000Z,1023.5
2023-04-18T12:15:11.000Z,1023.4
2023-04-18T12:16:27.320Z,1023.4
2023-04-18T12:17:25.516Z,1023.4
2023-04-18T12:18:41.711Z,1023.4
2023-04-18T12:20:15.000Z,1023.3
2023-04-18T12:21:32.000Z,1023.5
2023-04-18T12:22:48.313Z,1023.3
2023-04-18T12:23:46.491Z,1023.4
2023-04-18T12:25:02.687Z,1023.4
2023-04-18T12:26:36.000Z,1023.4
2023-04-18T12:27:53.000Z,1023.4
2023-04-18T12:29:09.000Z,1023.4
2023-04-18T12:30:25.467Z,1023.4
2023-04-18T12:31:23.662Z,1023.3
2023-04-18T12:32:57.877Z,1023.4
2023-04-18T12:34:13.000Z,1023.4
2023-04-18T12:35:29.000Z,1023.4
2023-04-18T12:36:27.458Z,1023.3
2023-04-18T12:38:01.000Z,1023.2
2023-04-18T12:39:17.849Z,1023.3
2023-04-18T12:40:34.000Z,1023.4
2023-04-18T12:41:32.239Z,1023.3
2023-04-18T12:43:06.000Z,1023.4
2023-04-18T12:44:04.630Z,1023.3
2023-04-18T12:45:38.000Z,1023.4
2023-04-18T12:46:55.025Z,1023.4
2023-04-18T12:48:37.000Z,1023.4
2023-04-18T12:49:27.000Z,1023.4
2023-04-18T12:50:43.606Z,1023.4
2023-04-18T12:51:59.000Z,1023.2
2023-04-18T12:53:16.012Z,1023.3
2023-04-18T12:54:13.207Z,1023.4
2023-04-18T12:55:47.412Z,1023.3
2023-04-18T12:56:45.597Z,1023.3
2023-04-18T12:58:19.000Z,1023.3
2023-04-18T12:59:36.000Z,1023.3
2023-04-18T13:00:52.203Z,1023.4
2023-04-18T13:01:50.378Z,1023.2
2023-04-18T13:03:24.588Z,1023.3
2023-04-18T13:04:40.000Z,1023.3
2023-04-18T13:05:56.000Z,1023.3
2023-04-18T13:07:13.177Z,1023.3
2023-04-18T13:08:29.361Z,1023.2
2023-04-18T13:09:27.548Z,1023.3
2023-04-18T13:11:01.764Z,1023.3
2023-04-18T13:12:17.000Z,1023.2
2023-04-18T13:13:34.134Z,1023.3
2023-04-18T13:14:32.329Z,1023.2
2023-04-18T13:15:47.540Z,1023.2
2023-04-18T13:17:21.000Z,1023.2
2023-04-18T13:18:37.943Z,1023.2
2023-04-18T13:19:54.000Z,1023.2
2023-04-18T13:21:10.323Z,1023.3
2023-04-18T13:22:26.518Z,1023.2
2023-04-18T13:23:42.721Z,1023.2
2023-04-18T13:24:58.912Z,1023.2
2023-04-18T13:26:15.100Z,1023.1
2023-04-18T13:27:13.294Z,1023.2
2023-04-18T13:28:47.000Z,1023.2
2023-04-18T13:30:03.685Z,1023.2
2023-04-18T13:31:19.887Z,1023.1
2023-04-18T13:32:35.000Z,1023.1
2023-04-18T13:33:33.286Z,1023.1
2023-04-18T13:34:49.480Z,1023.1
2023-04-18T13:36:23.000Z,1023.1
2023-04-18T13:37:39.878Z,1023.1
2023-04-18T13:38:56.000Z,1023
2023-04-18T13:39:54.260Z,1023.2
2023-04-18T13:41:28.469Z,1023.1
2023-04-18T13:42:44.000Z,1023.1
2023-04-18T13:44:00.000Z,1023.1
2023-04-18T13:44:59.039Z,1023.1
2023-04-18T13:46:33.000Z,1023
2023-04-18T13:47:31.429Z,1023
2023-04-18T13:49:05.000Z,1023
2023-04-18T13:50:21.000Z,1023
2023-04-18T13:51:38.000Z,1023
2023-04-18T13:52:54.208Z,1023
2023-04-18T13:54:10.406Z,1023.1
2023-04-18T13:55:25.000Z,1023
2023-04-18T13:56:41.000Z,1023
2023-04-18T13:57:58.000Z,1023
2023-04-18T13:59:14.000Z,1023
2023-04-18T14:00:12.395Z,1023
2023-04-18T14:01:46.598Z,1023
2023-04-18T14:02:44.784Z,1023.1
2023-04-18T14:04:00.979Z,1023
2023-04-18T14:05:17.174Z,1023
2023-04-18T14:06:51.000Z,1022.9
2023-04-18T14:08:07.000Z,1023
2023-04-18T14:09:23.760Z,1023
2023-04-18T14:10:21.954Z,1023
2023-04-18T14:11:56.278Z,1023
2023-04-18T14:12:54.466Z,1023
2023-04-18T14:14:28.000Z,1023
2023-04-18T14:15:26.856Z,1023
2023-04-18T14:16:43.051Z,1023
2023-04-18T14:18:17.246Z,1022.9
2023-04-18T14:19:33.451Z,1022.9
2023-04-18T14:20:49.000Z,1023
2023-04-18T14:22:05.000Z,1022.9
2023-04-18T14:23:22.030Z,1022.9
2023-04-18T14:24:38.230Z,1022.9
2023-04-18T14:25:36.415Z,1022.9
2023-04-18T14:27:10.000Z,1022.9
2023-04-18T14:28:26.000Z,1022.9
2023-04-18T14:29:43.018Z,1022.9
2023-04-18T14:30:41.316Z,1022.9
2023-04-18T14:32:15.000Z,1022.9
2023-04-18T14:33:31.705Z,1022.9
2023-04-18T14:34:47.904Z,1022.9
2023-04-18T14:36:04.101Z,1022.8
2023-04-18T14:37:20.290Z,1022.8
2023-04-18T14:38:18.484Z,1022.8
2023-04-18T14:39:52.680Z,1022.8
2023-04-18T14:41:08.879Z,1022.8
2023-04-18T14:42:07.070Z,1022.8
2023-04-18T14:43:41.000Z,1022.7
2023-04-18T14:44:57.000Z,1022.8
2023-04-18T14:46:13.000Z,1022.8
2023-04-18T14:47:29.872Z,1022.7
2023-04-18T14:48:28.045Z,1022.7
2023-04-18T14:50:02.000Z,1022.7
2023-04-18T14:51:18.459Z,1022.8
2023-04-18T14:52:33.656Z,1022.7
2023-04-18T14:53:49.000Z,1022.7
2023-04-18T14:55:06.000Z,1022.7
2023-04-18T14:56:22.243Z,1022.7
2023-04-18T14:57:38.445Z,1022.7
2023-04-18T14:58:54.000Z,1022.8
2023-04-18T15:00:10.000Z,1022.8
2023-04-18T15:01:09.013Z,1022.7
2023-04-18T15:02:43.000Z,1022.8
2023-04-18T15:03:41.402Z,1022.9
2023-04-18T15:05:15.611Z,1022.8
2023-04-18T15:06:13.792Z,1022.8
2023-04-18T15:07:47.987Z,1022.8
2023-04-18T15:08:46.182Z,1022.7
2023-04-18T15:10:19.411Z,1022.7
2023-04-18T15:11:35.590Z,1022.7
2023-04-18T15:12:51.000Z,1022.7
2023-04-18T15:14:07.981Z,1022.7
2023-04-18T15:15:24.000Z,1022.7
2023-04-18T15:16:22.372Z,1022.8
2023-04-18T15:17:56.582Z,1022.7
2023-04-18T15:18:54.763Z,1022.7
2023-04-18T15:20:28.000Z,1022.6
2023-04-18T15:21:45.000Z,1022.7
2023-04-18T15:23:01.000Z,1022.7
2023-04-18T15:24:17.546Z,1022.7
2023-04-18T15:25:33.758Z,1022.8
2023-04-18T15:26:31.937Z,1022.7
2023-04-18T15:28:06.152Z,1022.6
2023-04-18T15:29:04.449Z,1022.7
2023-04-18T15:30:38.000Z,1022.6
2023-04-18T15:31:36.839Z,1022.7
2023-04-18T15:33:11.000Z,1022.7
2023-04-18T15:34:09.229Z,1022.7
2023-04-18T15:35:43.000Z,1022.6
2023-04-18T15:36:59.000Z,1022.6
2023-04-18T15:38:15.816Z,1022.7
2023-04-18T15:39:14.010Z,1022.7
2023-04-18T15:40:48.223Z,1022.6
2023-04-18T15:42:04.406Z,1022.7
2023-04-18T15:43:20.604Z,1022.7
2023-04-18T15:44:36.793Z,1022.8
2023-04-18T15:45:52.988Z,1022.9
2023-04-18T15:46:51.183Z,1022.7
2023-04-18T15:48:24.409Z,1022.7
2023-04-18T15:49:40.590Z,1022.7
2023-04-18T15:50:38.785Z,1022.7
2023-04-18T15:52:12.997Z,1022.7
2023-04-18T15:53:29.000Z,1022.7
2023-04-18T15:54:45.383Z,1022.7